createdAt,value
2017-09-21T00:00:44.007Z,34.95
2017-09-21T00:03:11.874Z,27.87
2017-09-21T00:05:39.741Z,32.03
2017-09-21T00:08:07.609Z,33.22
2017-09-21T00:10:35.475Z,27.23
2017-09-21T00:13:03.374Z,29.77
2017-09-21T00:15:32.030Z,23.55
2017-09-21T00:17:59.897Z,23.77
2017-09-21T00:20:27.764Z,33.42
2017-09-21T00:22:55.637Z,37.50
2017-09-21T00:25:23.499Z,36.38
2017-09-21T00:27:51.367Z,32.47
2017-09-21T00:30:19.234Z,32.47
2017-09-21T00:32:47.033Z,31.87
2017-09-21T00:35:15.684Z,31.10
2017-09-21T00:37:43.551Z,30.15
2017-09-21T00:40:11.428Z,32.90
2017-09-21T00:42:39.287Z,38.47
2017-09-21T00:45:07.155Z,34.17
2017-09-21T00:47:35.022Z,36.53
2017-09-21T00:50:02.889Z,32.65
2017-09-21T00:52:30.755Z,25.70
2017-09-21T00:54:58.624Z,30.00
2017-09-21T00:57:26.490Z,26.23
2017-09-21T00:59:54.358Z,25.80
2017-09-21T01:02:22.225Z,21.23
2017-09-21T01:04:50.093Z,21.83
2017-09-21T01:07:17.959Z,20.10
2017-09-21T01:09:45.827Z,15.85
2017-09-21T01:12:13.700Z,13.52
2017-09-21T01:14:41.669Z,11.43
2017-09-21T01:17:09.532Z,14.40
2017-09-21T01:19:37.398Z,11.73
2017-09-21T01:22:05.267Z,16.83
2017-09-21T01:24:33.133Z,17.70
2017-09-21T01:27:01.105Z,15.15
2017-09-21T01:29:29.073Z,17.50
2017-09-21T01:31:59.910Z,18.02
2017-09-21T01:34:27.778Z,53.25
2017-09-21T01:36:55.645Z,27.75
2017-09-21T01:39:23.547Z,37.15
2017-09-21T01:41:52.199Z,78.00
2017-09-21T01:44:20.168Z,120.05
2017-09-21T01:46:48.035Z,124.82
2017-09-21T01:49:16.005Z,61.30
2017-09-21T01:51:43.974Z,57.88
2017-09-21T01:54:11.945Z,30.33
2017-09-21T01:56:39.812Z,47.67
2017-09-21T01:59:07.678Z,41.22
2017-09-21T02:01:35.547Z,53.08
2017-09-21T02:04:03.416Z,84.80
2017-09-21T02:06:31.281Z,44.13
2017-09-21T02:08:59.148Z,47.58
2017-09-21T02:11:27.016Z,39.17
2017-09-21T02:13:54.883Z,48.40
2017-09-21T02:16:22.750Z,96.30
2017-09-21T02:18:50.651Z,47.25
2017-09-21T02:21:19.308Z,84.95
2017-09-21T02:23:47.173Z,27.13
2017-09-21T02:26:15.044Z,83.65
2017-09-21T02:28:42.913Z,48.17
2017-09-21T02:31:10.777Z,37.15
2017-09-21T02:33:38.643Z,64.62
2017-09-21T02:36:06.508Z,34.88
2017-09-21T02:38:34.375Z,51.08
2017-09-21T02:41:02.242Z,43.00
2017-09-21T02:43:30.214Z,76.80
2017-09-21T02:45:58.079Z,52.38
2017-09-21T02:48:25.947Z,87.28
2017-09-21T02:50:53.813Z,131.10
2017-09-21T02:53:21.683Z,39.00
2017-09-21T02:55:49.550Z,34.70
2017-09-21T02:58:17.416Z,38.92
2017-09-21T03:00:45.283Z,33.75
2017-09-21T03:03:13.152Z,100.18
2017-09-21T03:05:41.019Z,66.12
2017-09-21T03:08:08.885Z,41.60
2017-09-21T03:10:36.753Z,37.83
2017-09-21T03:13:04.655Z,129.93
2017-09-21T03:15:33.306Z,36.40
2017-09-21T03:18:01.174Z,35.35
2017-09-21T03:20:29.041Z,44.67
2017-09-21T03:22:56.908Z,27.25
2017-09-21T03:25:24.776Z,48.15
2017-09-21T03:27:52.643Z,34.20
2017-09-21T03:30:20.511Z,55.63
2017-09-21T03:32:48.378Z,41.85
2017-09-21T03:35:16.245Z,22.02
2017-09-21T03:37:44.113Z,37.53
2017-09-21T03:40:11.980Z,41.40
2017-09-21T03:42:39.847Z,23.08
2017-09-21T03:45:07.715Z,39.75
2017-09-21T03:47:35.582Z,32.65
2017-09-21T03:50:03.552Z,21.83
2017-09-21T03:52:31.418Z,24.98
2017-09-21T03:54:59.286Z,30.62
2017-09-21T03:57:27.153Z,49.90
2017-09-21T03:59:55.020Z,21.67
2017-09-21T04:02:22.888Z,43.60
2017-09-21T04:04:50.756Z,16.55
2017-09-21T04:07:18.622Z,16.00
2017-09-21T04:09:46.519Z,22.20
2017-09-21T04:12:15.176Z,18.48
2017-09-21T04:14:43.044Z,22.10
2017-09-21T04:17:11.218Z,17.20
2017-09-21T04:19:39.085Z,18.80
2017-09-21T04:22:06.953Z,20.17
2017-09-21T04:24:35.025Z,18.95
2017-09-21T04:27:02.894Z,14.73
2017-09-21T04:29:30.760Z,20.85
2017-09-21T04:31:58.626Z,17.65
2017-09-21T04:34:32.946Z,33.78
2017-09-21T04:37:00.812Z,18.45
2017-09-21T04:39:28.679Z,32.25
2017-09-21T04:41:56.547Z,31.10
2017-09-21T04:44:24.414Z,24.98
2017-09-21T04:46:52.281Z,32.05
2017-09-21T04:49:20.149Z,22.13
2017-09-21T04:51:48.017Z,23.70
2017-09-21T04:54:15.884Z,21.05
2017-09-21T04:56:43.684Z,30.90
2017-09-21T04:59:12.336Z,21.33
2017-09-21T05:01:40.203Z,23.60
2017-09-21T05:04:08.069Z,19.98
2017-09-21T05:06:35.938Z,27.67
2017-09-21T05:09:03.906Z,22.37
2017-09-21T05:11:31.774Z,33.70
2017-09-21T05:13:59.641Z,39.78
2017-09-21T05:16:27.509Z,37.47
2017-09-21T05:18:55.375Z,32.95
2017-09-21T05:21:23.256Z,36.95
2017-09-21T05:23:51.115Z,19.35
2017-09-21T05:26:18.978Z,20.42
2017-09-21T05:28:46.847Z,18.77
2017-09-21T05:31:14.717Z,16.33
2017-09-21T05:33:42.585Z,27.20
2017-09-21T05:36:10.450Z,18.98
2017-09-21T05:38:38.317Z,34.17
2017-09-21T05:41:06.182Z,20.77
2017-09-21T05:43:34.054Z,16.55
2017-09-21T05:46:01.916Z,15.00
2017-09-21T05:48:29.786Z,17.12
2017-09-21T05:50:57.653Z,19.62
2017-09-21T05:53:25.519Z,18.60
2017-09-21T05:55:53.385Z,25.77
2017-09-21T05:58:21.254Z,21.30
2017-09-21T06:00:49.121Z,24.50
2017-09-21T06:03:16.988Z,23.23
2017-09-21T06:05:44.855Z,12.80
2017-09-21T06:08:12.722Z,20.08
2017-09-21T06:10:40.594Z,18.65
2017-09-21T06:13:08.457Z,17.98
2017-09-21T06:15:36.323Z,36.03
2017-09-21T06:18:04.191Z,35.67
2017-09-21T06:20:32.059Z,16.70
2017-09-21T06:22:59.926Z,20.27
2017-09-21T06:25:27.793Z,26.83
2017-09-21T06:27:55.661Z,23.23
2017-09-21T06:30:23.528Z,28.58
2017-09-21T06:32:51.396Z,27.05
2017-09-21T06:35:19.262Z,22.52
2017-09-21T06:37:47.130Z,28.83
2017-09-21T06:40:14.997Z,25.48
2017-09-21T06:42:42.864Z,51.92
2017-09-21T06:45:10.731Z,31.60
2017-09-21T06:47:38.599Z,31.52
2017-09-21T06:50:06.466Z,78.35
2017-09-21T06:52:34.334Z,46.00
2017-09-21T06:55:02.201Z,86.93
2017-09-21T06:57:30.068Z,44.55
2017-09-21T06:59:57.936Z,48.95
2017-09-21T07:02:25.803Z,44.83
2017-09-21T07:04:53.671Z,46.92
2017-09-21T07:07:21.537Z,29.20
2017-09-21T07:09:49.404Z,28.92
2017-09-21T07:12:17.271Z,21.17
2017-09-21T07:14:45.139Z,25.58
2017-09-21T07:17:13.006Z,23.33
2017-09-21T07:19:40.874Z,31.87
2017-09-21T07:22:08.741Z,33.92
2017-09-21T07:24:36.609Z,23.95
2017-09-21T07:27:04.475Z,25.27
2017-09-21T07:29:32.343Z,23.98
2017-09-21T07:32:00.210Z,18.87
2017-09-21T07:34:28.078Z,23.17
2017-09-21T07:36:55.946Z,20.30
2017-09-21T07:39:23.812Z,23.60
2017-09-21T07:41:51.679Z,23.58
2017-09-21T07:44:19.554Z,21.50
2017-09-21T07:46:47.415Z,46.15
2017-09-21T07:49:15.283Z,40.35
2017-09-21T07:51:43.180Z,28.42
2017-09-21T07:54:11.836Z,33.80
2017-09-21T07:56:39.703Z,23.77
2017-09-21T07:59:07.570Z,34.00
2017-09-21T08:01:35.437Z,27.48
2017-09-21T08:04:03.305Z,26.83
2017-09-21T08:06:31.171Z,25.45
2017-09-21T08:08:59.039Z,25.12
2017-09-21T08:11:27.009Z,27.95
2017-09-21T08:13:54.979Z,26.80
2017-09-21T08:16:22.859Z,25.92
2017-09-21T08:18:50.714Z,56.50
2017-09-21T08:21:18.580Z,30.90
2017-09-21T08:23:46.458Z,35.33
2017-09-21T08:26:14.321Z,26.05
2017-09-21T08:28:42.185Z,26.40
2017-09-21T08:31:10.051Z,32.60
2017-09-21T08:33:37.923Z,26.95
2017-09-21T08:36:05.798Z,31.90
2017-09-21T08:38:33.656Z,37.08
2017-09-21T08:41:01.624Z,36.60
2017-09-21T08:43:29.493Z,36.42
2017-09-21T08:45:57.357Z,36.92
2017-09-21T08:48:25.223Z,39.05
2017-09-21T08:50:53.296Z,34.38
2017-09-21T08:53:21.162Z,38.10
2017-09-21T08:55:49.030Z,39.20
2017-09-21T08:58:16.922Z,42.38
2017-09-21T09:00:44.765Z,38.88
2017-09-21T09:03:12.632Z,41.83
2017-09-21T09:05:40.500Z,46.30
2017-09-21T09:08:08.367Z,47.22
2017-09-21T09:10:36.337Z,41.47
2017-09-21T09:13:04.204Z,39.55
2017-09-21T09:15:32.071Z,38.35
2017-09-21T09:17:59.940Z,43.30
2017-09-21T09:20:27.805Z,37.53
2017-09-21T09:22:55.673Z,43.90
2017-09-21T09:25:23.541Z,42.13
2017-09-21T09:27:51.407Z,47.08
2017-09-21T09:30:19.275Z,46.90
2017-09-21T09:32:47.143Z,51.55
2017-09-21T09:35:15.010Z,42.35
2017-09-21T09:37:42.979Z,44.67
2017-09-21T09:40:10.847Z,45.08
2017-09-21T09:42:38.716Z,46.08
2017-09-21T09:45:06.522Z,45.92
2017-09-21T09:47:35.164Z,45.75
2017-09-21T09:50:03.033Z,52.45
2017-09-21T09:52:30.900Z,45.83
2017-09-21T09:54:58.768Z,55.20
2017-09-21T09:57:26.634Z,47.80
2017-09-21T09:59:54.504Z,49.90
2017-09-21T10:02:22.472Z,47.85
2017-09-21T10:04:50.339Z,50.22
2017-09-21T10:07:18.207Z,56.17
2017-09-21T10:09:46.074Z,51.35
2017-09-21T10:12:13.942Z,50.20
2017-09-21T10:14:41.808Z,49.08
2017-09-21T10:17:09.677Z,53.15
2017-09-21T10:19:37.543Z,54.30
2017-09-21T10:22:05.410Z,54.47
2017-09-21T10:24:33.279Z,55.67
2017-09-21T10:27:01.151Z,48.42
2017-09-21T10:29:29.012Z,50.70
2017-09-21T10:31:56.880Z,55.33
2017-09-21T10:34:24.746Z,52.03
2017-09-21T10:36:52.614Z,51.85
2017-09-21T10:39:20.482Z,50.50
2017-09-21T10:41:48.353Z,55.15
2017-09-21T10:44:16.216Z,45.33
2017-09-21T10:46:44.084Z,50.12
2017-09-21T10:49:12.053Z,51.67
2017-09-21T10:51:39.920Z,45.53
2017-09-21T10:54:07.788Z,47.03
2017-09-21T10:56:35.656Z,41.92
2017-09-21T10:59:03.523Z,34.38
2017-09-21T11:01:32.106Z,41.28
2017-09-21T11:03:59.974Z,37.05
2017-09-21T11:06:27.842Z,42.60
2017-09-21T11:08:55.709Z,38.25
2017-09-21T11:11:23.575Z,36.00
2017-09-21T11:13:51.443Z,36.60
2017-09-21T11:16:19.238Z,35.13
2017-09-21T11:18:47.075Z,36.30
2017-09-21T11:21:14.942Z,32.75
2017-09-21T11:23:42.810Z,27.48
2017-09-21T11:26:10.676Z,26.80
2017-09-21T11:28:38.546Z,27.85
2017-09-21T11:31:06.413Z,25.75
2017-09-21T11:33:34.279Z,26.55
2017-09-21T11:36:02.149Z,23.38
2017-09-21T11:38:30.018Z,26.02
2017-09-21T11:40:57.882Z,22.40
2017-09-21T11:43:25.749Z,23.27
2017-09-21T11:45:53.616Z,21.25
2017-09-21T11:48:21.483Z,24.98
2017-09-21T11:50:49.350Z,21.17
2017-09-21T11:53:17.217Z,18.80
2017-09-21T11:55:45.085Z,24.33
2017-09-21T11:58:12.961Z,19.25
2017-09-21T12:00:40.819Z,19.80
2017-09-21T12:03:08.686Z,17.05
2017-09-21T12:05:36.554Z,21.15
2017-09-21T12:08:04.425Z,15.20
2017-09-21T12:10:32.292Z,17.90
2017-09-21T12:13:00.156Z,16.27
2017-09-21T12:15:28.023Z,22.23
2017-09-21T12:17:55.891Z,15.80
2017-09-21T12:20:23.757Z,16.77
2017-09-21T12:22:51.624Z,14.73
2017-09-21T12:25:19.493Z,16.58
2017-09-21T12:27:47.360Z,12.57
2017-09-21T12:30:15.227Z,14.55
2017-09-21T12:32:43.095Z,13.43
2017-09-21T12:35:10.962Z,11.77
2017-09-21T12:37:38.829Z,12.37
2017-09-21T12:40:06.696Z,14.02
2017-09-21T12:42:34.564Z,12.57
2017-09-21T12:45:02.431Z,13.00
2017-09-21T12:47:30.299Z,11.07
2017-09-21T12:49:58.371Z,10.63
2017-09-21T12:52:26.272Z,14.30
2017-09-21T12:54:54.925Z,10.82
2017-09-21T12:57:22.792Z,10.57
2017-09-21T12:59:50.659Z,9.60
2017-09-21T13:02:18.526Z,10.18
2017-09-21T13:04:46.396Z,12.20
2017-09-21T13:07:14.260Z,9.75
2017-09-21T13:09:42.129Z,10.52
2017-09-21T13:12:09.995Z,10.57
2017-09-21T13:14:37.863Z,15.23
2017-09-21T13:17:05.730Z,9.48
2017-09-21T13:19:33.597Z,10.85
2017-09-21T13:22:01.465Z,8.50
2017-09-21T13:24:29.332Z,10.48
2017-09-21T13:26:57.404Z,9.05
2017-09-21T13:29:25.271Z,8.27
2017-09-21T13:31:53.139Z,8.82
2017-09-21T13:34:21.007Z,10.60
2017-09-21T13:36:48.873Z,5.78
2017-09-21T13:39:16.741Z,7.62
2017-09-21T13:41:44.610Z,7.25
2017-09-21T13:44:12.476Z,6.78
2017-09-21T13:46:40.342Z,7.45
2017-09-21T13:49:08.210Z,7.45
2017-09-21T13:51:36.078Z,11.43
2017-09-21T13:54:03.944Z,9.90
2017-09-21T13:56:31.811Z,6.60
2017-09-21T13:58:59.680Z,11.52
2017-09-21T14:01:27.547Z,8.73
2017-09-21T14:03:55.413Z,8.52
2017-09-21T14:06:23.281Z,6.47
2017-09-21T14:08:51.148Z,21.12
2017-09-21T14:11:19.117Z,5.90
2017-09-21T14:13:46.988Z,7.75
2017-09-21T14:16:14.857Z,11.05
2017-09-21T14:18:42.822Z,8.23
2017-09-21T14:21:10.690Z,7.47
2017-09-21T14:23:38.557Z,9.88
2017-09-21T14:26:06.424Z,6.03
2017-09-21T14:28:34.327Z,5.30
2017-09-21T14:31:02.987Z,5.93
2017-09-21T14:33:30.849Z,6.05
2017-09-21T14:35:58.714Z,6.60
2017-09-21T14:38:26.580Z,7.10
2017-09-21T14:40:54.452Z,8.40
2017-09-21T14:43:22.522Z,6.37
2017-09-21T14:45:50.388Z,7.60
2017-09-21T14:48:18.390Z,6.43
2017-09-21T14:50:47.044Z,6.40
2017-09-21T14:53:14.910Z,7.05
2017-09-21T14:55:42.776Z,7.10
2017-09-21T14:58:10.644Z,12.73
2017-09-21T15:00:38.517Z,8.15
2017-09-21T15:03:06.379Z,11.65
2017-09-21T15:05:34.246Z,6.68
2017-09-21T15:08:02.113Z,10.85
2017-09-21T15:10:29.981Z,8.85
2017-09-21T15:12:57.950Z,9.40
2017-09-21T15:15:25.817Z,9.35
2017-09-21T15:17:53.686Z,10.63
2017-09-21T15:20:21.553Z,8.40
2017-09-21T15:22:49.419Z,9.18
2017-09-21T15:25:17.401Z,6.87
2017-09-21T15:27:45.257Z,5.20
2017-09-21T15:30:13.124Z,6.45
2017-09-21T15:32:40.997Z,8.50
2017-09-21T15:35:09.576Z,6.15
2017-09-21T15:37:37.442Z,6.25
2017-09-21T15:40:05.314Z,6.47
2017-09-21T15:42:33.178Z,5.85
2017-09-21T15:45:01.046Z,8.70
2017-09-21T15:47:28.911Z,10.50
2017-09-21T15:49:56.779Z,8.02
2017-09-21T15:52:24.647Z,8.68
2017-09-21T15:54:52.515Z,7.40
2017-09-21T15:57:20.381Z,8.57
2017-09-21T15:59:48.284Z,7.82
2017-09-21T16:02:16.934Z,10.18
2017-09-21T16:04:44.803Z,9.48
2017-09-21T16:07:12.670Z,10.65
2017-09-21T16:09:40.474Z,20.17
2017-09-21T16:12:09.019Z,48.72
2017-09-21T16:14:36.738Z,22.30
2017-09-21T16:17:04.463Z,12.18
2017-09-21T16:19:32.222Z,8.65
2017-09-21T16:21:59.964Z,10.82
2017-09-21T16:24:28.583Z,9.25
2017-09-21T16:26:56.298Z,7.95
2017-09-21T16:29:25.202Z,17.62
2017-09-21T16:31:53.117Z,7.00
2017-09-21T16:34:21.610Z,10.85
2017-09-21T16:36:50.136Z,6.68
2017-09-21T16:39:17.891Z,14.98
2017-09-21T16:41:45.654Z,7.40
2017-09-21T16:44:13.444Z,6.25
2017-09-21T16:46:41.187Z,7.68
2017-09-21T16:49:09.928Z,6.80
2017-09-21T16:51:38.582Z,7.30
2017-09-21T16:54:06.450Z,8.05
2017-09-21T16:56:34.316Z,9.32
2017-09-21T16:59:02.185Z,6.85
2017-09-21T17:01:30.051Z,7.97
2017-09-21T17:03:57.930Z,7.65
2017-09-21T17:06:25.785Z,7.53
2017-09-21T17:08:57.374Z,10.88
2017-09-21T17:11:26.334Z,6.62
2017-09-21T17:13:54.816Z,8.65
2017-09-21T17:16:23.604Z,8.27
2017-09-21T17:18:52.598Z,10.45
2017-09-21T17:21:20.465Z,8.85
2017-09-21T17:23:48.332Z,8.48
2017-09-21T17:26:16.199Z,10.00
2017-09-21T17:28:44.068Z,8.20
2017-09-21T17:31:11.900Z,10.40
2017-09-21T17:33:39.904Z,8.38
2017-09-21T17:36:09.000Z,7.10
2017-09-21T17:38:36.872Z,8.15
2017-09-21T17:41:04.738Z,6.78
2017-09-21T17:43:33.935Z,12.48
2017-09-21T17:46:03.972Z,10.32
2017-09-21T17:48:31.823Z,6.87
2017-09-21T17:50:59.688Z,7.72
2017-09-21T17:53:27.554Z,12.23
2017-09-21T17:55:55.422Z,7.53
2017-09-21T17:58:23.288Z,12.13
2017-09-21T18:00:51.156Z,9.05
2017-09-21T18:03:19.022Z,9.23
2017-09-21T18:05:46.746Z,10.85
2017-09-21T18:08:14.466Z,9.75
2017-09-21T18:10:42.220Z,12.55
2017-09-21T18:13:10.081Z,11.40
2017-09-21T18:15:38.051Z,11.50
2017-09-21T18:18:05.782Z,10.57
2017-09-21T18:20:33.502Z,9.90
2017-09-21T18:23:01.328Z,8.90
2017-09-21T18:25:29.051Z,9.30
2017-09-21T18:27:57.535Z,9.57
2017-09-21T18:30:26.027Z,11.48
2017-09-21T18:32:53.802Z,10.95
2017-09-21T18:35:21.707Z,15.15
2017-09-21T18:37:49.574Z,8.80
2017-09-21T18:40:17.442Z,8.55
2017-09-21T18:42:45.309Z,10.73
2017-09-21T18:45:13.047Z,10.52
2017-09-21T18:47:40.787Z,9.85
2017-09-21T18:50:08.512Z,13.75
2017-09-21T18:52:36.471Z,9.45
2017-09-21T18:55:04.338Z,8.15
2017-09-21T18:57:32.205Z,10.73
2017-09-21T19:00:00.073Z,11.50
2017-09-21T19:02:28.043Z,9.27
2017-09-21T19:04:55.910Z,7.70
2017-09-21T19:07:23.658Z,7.35
2017-09-21T19:09:51.404Z,10.52
2017-09-21T19:12:19.162Z,8.57
2017-09-21T19:14:46.929Z,11.88
2017-09-21T19:17:14.734Z,16.12
2017-09-21T19:19:42.601Z,12.70
2017-09-21T19:22:10.322Z,10.27
2017-09-21T19:24:38.270Z,9.25
2017-09-21T19:27:06.919Z,10.88
2017-09-21T19:29:34.641Z,10.55
2017-09-21T19:32:02.358Z,12.45
2017-09-21T19:34:30.077Z,9.35
2017-09-21T19:36:57.812Z,10.15
2017-09-21T19:39:26.349Z,10.25
2017-09-21T19:41:54.072Z,12.75
2017-09-21T19:44:22.606Z,10.60
2017-09-21T19:46:50.472Z,10.65
2017-09-21T19:49:18.340Z,14.10
2017-09-21T19:51:46.054Z,12.50
2017-09-21T19:54:14.688Z,11.32
2017-09-21T19:56:42.558Z,10.73
2017-09-21T19:59:10.270Z,11.00
2017-09-21T20:01:38.753Z,11.55
2017-09-21T20:04:06.484Z,15.30
2017-09-21T20:06:34.333Z,9.88
2017-09-21T20:09:02.303Z,12.55
2017-09-21T20:11:30.095Z,10.20
2017-09-21T20:13:57.941Z,11.93
2017-09-21T20:16:25.802Z,13.00
2017-09-21T20:18:53.669Z,15.07
2017-09-21T20:21:21.537Z,14.02
2017-09-21T20:23:49.258Z,12.00
2017-09-21T20:26:16.974Z,17.20
2017-09-21T20:28:44.685Z,14.85
2017-09-21T20:31:12.408Z,15.85
2017-09-21T20:33:40.126Z,16.60
2017-09-21T20:36:08.126Z,17.83
2017-09-21T20:38:35.842Z,18.50
2017-09-21T20:41:03.568Z,20.92
2017-09-21T20:43:31.292Z,26.40
2017-09-21T20:45:59.007Z,25.67
2017-09-21T20:48:27.667Z,18.30
2017-09-21T20:50:55.401Z,20.92
2017-09-21T20:53:23.134Z,19.15
2017-09-21T20:55:51.628Z,17.48
2017-09-21T20:58:20.269Z,18.80
2017-09-21T21:00:48.134Z,20.17
2017-09-21T21:03:15.999Z,17.98
2017-09-21T21:05:43.966Z,13.90
2017-09-21T21:08:11.866Z,17.27
2017-09-21T21:10:40.521Z,15.13
2017-09-21T21:13:08.388Z,18.75
2017-09-21T21:15:36.254Z,16.87
2017-09-21T21:18:04.118Z,13.05
2017-09-21T21:20:31.989Z,16.33
2017-09-21T21:22:59.857Z,15.57
2017-09-21T21:25:27.725Z,14.38
2017-09-21T21:27:55.592Z,20.90
2017-09-21T21:30:23.460Z,15.43
2017-09-21T21:32:51.326Z,19.23
2017-09-21T21:37:52.898Z,22.02
2017-09-21T21:40:20.770Z,17.73
2017-09-21T21:42:48.633Z,18.08
2017-09-21T21:45:16.502Z,17.87
2017-09-21T21:47:44.370Z,22.13
2017-09-21T21:50:12.235Z,20.23
2017-09-21T21:52:40.102Z,17.42
2017-09-21T21:55:07.910Z,18.15
2017-09-21T21:57:36.553Z,18.20
2017-09-21T22:00:04.421Z,16.55
2017-09-21T22:02:32.288Z,19.73
2017-09-21T22:05:00.023Z,21.40
2017-09-21T22:07:27.920Z,23.38
2017-09-21T22:09:55.787Z,22.45
2017-09-21T22:12:23.655Z,26.90
2017-09-21T22:14:51.522Z,31.92
2017-09-21T22:17:19.388Z,23.83
2017-09-21T22:19:47.360Z,22.45
2017-09-21T22:22:15.226Z,24.52
2017-09-21T22:24:43.094Z,19.90
2017-09-21T22:27:10.854Z,21.17
2017-09-21T22:29:38.654Z,18.17
2017-09-21T22:32:06.381Z,23.55
2017-09-21T22:34:34.146Z,18.90
2017-09-21T22:37:02.636Z,19.30
2017-09-21T22:39:30.503Z,16.33
2017-09-21T22:41:58.406Z,21.30
2017-09-21T22:44:27.056Z,13.80
2017-09-21T22:46:54.922Z,22.55
2017-09-21T22:49:22.791Z,16.83
2017-09-21T22:51:50.657Z,15.48
2017-09-21T22:54:18.525Z,16.70
2017-09-21T22:56:46.392Z,18.80
2017-09-21T22:59:14.260Z,18.52
2017-09-21T23:01:42.128Z,15.93
2017-09-21T23:04:09.994Z,21.20
2017-09-21T23:06:37.863Z,18.70
2017-09-21T23:09:05.730Z,23.55
2017-09-21T23:11:33.597Z,22.85
2017-09-21T23:14:01.463Z,19.05
2017-09-21T23:16:29.331Z,14.98
2017-09-21T23:18:57.301Z,20.10
2017-09-21T23:21:25.168Z,21.52
2017-09-21T23:23:53.036Z,19.48
2017-09-21T23:26:20.759Z,23.55
2017-09-21T23:28:48.565Z,19.05
2017-09-21T23:31:16.433Z,16.90
2017-09-21T23:33:44.299Z,22.87
2017-09-21T23:36:12.169Z,20.20
2017-09-21T23:38:40.034Z,24.10
2017-09-21T23:41:07.902Z,20.85
2017-09-21T23:43:35.769Z,23.45
2017-09-21T23:46:03.636Z,16.77
2017-09-21T23:48:31.503Z,15.48
2017-09-21T23:50:59.378Z,18.30
2017-09-21T23:53:27.243Z,16.42
2017-09-21T23:55:55.109Z,19.10
2017-09-21T23:58:22.973Z,18.58
